sensor_id;sensor_type;location;lat;lon;timestamp;pressure;altitude;pressure_sealevel;temperature
24278;BMP280;12394;42.692;23.314;2024-01-30T00:01:19;96947.63;;;0.54
24278;BMP280;12394;42.692;23.314;2024-01-30T00:03:44;96955.25;;;0.64
24278;BMP280;12394;42.692;23.314;2024-01-30T00:06:11;96954.50;;;0.63
24278;BMP280;12394;42.692;23.314;2024-01-30T00:08:37;96955.53;;;0.62
24278;BMP280;12394;42.692;23.314;2024-01-30T00:11:03;96949.16;;;0.55
24278;BMP280;12394;42.692;23.314;2024-01-30T00:13:28;96945.03;;;0.59
24278;BMP280;12394;42.692;23.314;2024-01-30T00:15:54;96950.09;;;0.64
24278;BMP280;12394;42.692;23.314;2024-01-30T00:18:19;96949.16;;;0.55
24278;BMP280;12394;42.692;23.314;2024-01-30T00:20:45;96956.88;;;0.55
24278;BMP280;12394;42.692;23.314;2024-01-30T00:23:10;96957.16;;;0.53
24278;BMP280;12394;42.692;23.314;2024-01-30T00:25:36;96934.38;;;0.36
24278;BMP280;12394;42.692;23.314;2024-01-30T00:28:01;96958.78;;;0.44
24278;BMP280;12394;42.692;23.314;2024-01-30T00:30:27;96957.22;;;0.48
24278;BMP280;12394;42.692;23.314;2024-01-30T00:32:53;96952.66;;;0.40
24278;BMP280;12394;42.692;23.314;2024-01-30T00:35:19;96946.44;;;0.41
24278;BMP280;12394;42.692;23.314;2024-01-30T00:37:45;96936.75;;;0.33
24278;BMP280;12394;42.692;23.314;2024-01-30T00:40:10;96956.75;;;0.41
24278;BMP280;12394;42.692;23.314;2024-01-30T00:42:41;96952.63;;;0.45
24278;BMP280;12394;42.692;23.314;2024-01-30T00:45:12;96935.13;;;0.42
24278;BMP280;12394;42.692;23.314;2024-01-30T00:47:37;96932.03;;;0.45
24278;BMP280;12394;42.692;23.314;2024-01-30T00:50:03;96928.44;;;0.41
24278;BMP280;12394;42.692;23.314;2024-01-30T00:52:28;96953.34;;;0.45
24278;BMP280;12394;42.692;23.314;2024-01-30T00:54:54;96946.78;;;0.34
24278;BMP280;12394;42.692;23.314;2024-01-30T00:57:19;96936.78;;;0.28
24278;BMP280;12394;42.692;23.314;2024-01-30T00:59:45;96936.97;;;0.36
24278;BMP280;12394;42.692;23.314;2024-01-30T01:02:10;96937.50;;;0.33
24278;BMP280;12394;42.692;23.314;2024-01-30T01:04:36;96952.63;;;0.45
24278;BMP280;12394;42.692;23.314;2024-01-30T01:07:01;96952.16;;;0.38
24278;BMP280;12394;42.692;23.314;2024-01-30T01:09:27;96954.69;;;0.43
24278;BMP280;12394;42.692;23.314;2024-01-30T01:11:52;96949.31;;;0.39
24278;BMP280;12394;42.692;23.314;2024-01-30T01:14:18;96942.06;;;0.41
24278;BMP280;12394;42.692;23.314;2024-01-30T01:16:43;96943.88;;;0.41
24278;BMP280;12394;42.692;23.314;2024-01-30T01:19:09;96959.31;;;0.41
24278;BMP280;12394;42.692;23.314;2024-01-30T01:21:34;96948.53;;;0.39
24278;BMP280;12394;42.692;23.314;2024-01-30T01:23:59;96956.84;;;0.31
24278;BMP280;12394;42.692;23.314;2024-01-30T01:26:25;96950.38;;;0.33
24278;BMP280;12394;42.692;23.314;2024-01-30T01:28:50;96953.47;;;0.35
24278;BMP280;12394;42.692;23.314;2024-01-30T01:31:16;96954.75;;;0.33
24278;BMP280;12394;42.692;23.314;2024-01-30T01:33:42;96945.00;;;0.30
24278;BMP280;12394;42.692;23.314;2024-01-30T01:36:08;96961.19;;;0.35
24278;BMP280;12394;42.692;23.314;2024-01-30T01:38:33;96960.13;;;0.36
24278;BMP280;12394;42.692;23.314;2024-01-30T01:40:59;96959.91;;;0.33
24278;BMP280;12394;42.692;23.314;2024-01-30T01:43:24;96950.38;;;0.33
24278;BMP280;12394;42.692;23.314;2024-01-30T01:45:50;96959.88;;;0.38
24278;BMP280;12394;42.692;23.314;2024-01-30T01:48:15;96960.28;;;0.50
24278;BMP280;12394;42.692;23.314;2024-01-30T01:50:42;96958.88;;;0.34
24278;BMP280;12394;42.692;23.314;2024-01-30T01:53:09;96949.38;;;0.29
24278;BMP280;12394;42.692;23.314;2024-01-30T01:55:35;96958.91;;;0.29
24278;BMP280;12394;42.692;23.314;2024-01-30T01:58:01;96956.31;;;0.34
24278;BMP280;12394;42.692;23.314;2024-01-30T02:00:27;96959.94;;;0.28
24278;BMP280;12394;42.692;23.314;2024-01-30T02:02:54;96957.16;;;0.24
24278;BMP280;12394;42.692;23.314;2024-01-30T02:05:21;96968.66;;;0.32
24278;BMP280;12394;42.692;23.314;2024-01-30T02:07:47;96967.63;;;0.33
24278;BMP280;12394;42.692;23.314;2024-01-30T02:10:13;96950.97;;;0.25
24278;BMP280;12394;42.692;23.314;2024-01-30T02:12:38;96973.00;;;0.36
24278;BMP280;12394;42.692;23.314;2024-01-30T02:15:04;96962.00;;;0.31
24278;BMP280;12394;42.692;23.314;2024-01-30T02:17:30;96951.53;;;0.22
24278;BMP280;12394;42.692;23.314;2024-01-30T02:19:56;96958.63;;;0.35
24278;BMP280;12394;42.692;23.314;2024-01-30T02:22:22;96968.91;;;0.35
24278;BMP280;12394;42.692;23.314;2024-01-30T02:24:49;96963.44;;;0.42
24278;BMP280;12394;42.692;23.314;2024-01-30T02:27:14;96957.00;;;0.44
24278;BMP280;12394;42.692;23.314;2024-01-30T02:29:40;96962.38;;;0.48
24278;BMP280;12394;42.692;23.314;2024-01-30T02:32:06;96948.50;;;0.44
24278;BMP280;12394;42.692;23.314;2024-01-30T02:34:33;96959.44;;;0.55
24278;BMP280;12394;42.692;23.314;2024-01-30T02:36:58;96947.91;;;0.52
24278;BMP280;12394;42.692;23.314;2024-01-30T02:39:24;96940.22;;;0.47
24278;BMP280;12394;42.692;23.314;2024-01-30T02:41:49;96951.50;;;0.51
24278;BMP280;12394;42.692;23.314;2024-01-30T02:44:15;96956.84;;;0.60
24278;BMP280;12394;42.692;23.314;2024-01-30T02:46:40;96946.59;;;0.55
24278;BMP280;12394;42.692;23.314;2024-01-30T02:49:06;96956.63;;;0.56
24278;BMP280;12394;42.692;23.314;2024-01-30T02:51:31;96942.72;;;0.57
24278;BMP280;12394;42.692;23.314;2024-01-30T02:53:57;96964.00;;;0.68
24278;BMP280;12394;42.692;23.314;2024-01-30T02:56:22;96958.06;;;0.67
24278;BMP280;12394;42.692;23.314;2024-01-30T02:58:48;96961.69;;;0.66
24278;BMP280;12394;42.692;23.314;2024-01-30T03:01:13;96958.13;;;0.62
24278;BMP280;12394;42.692;23.314;2024-01-30T03:03:39;96953.84;;;0.76
24278;BMP280;12394;42.692;23.314;2024-01-30T03:06:06;96951.28;;;0.76
24278;BMP280;12394;42.692;23.314;2024-01-30T03:08:32;96957.41;;;0.80
24278;BMP280;12394;42.692;23.314;2024-01-30T03:10:57;96950.16;;;0.82
24278;BMP280;12394;42.692;23.314;2024-01-30T03:13:23;96926.22;;;0.58
24278;BMP280;12394;42.692;23.314;2024-01-30T03:15:50;96950.47;;;0.81
24278;BMP280;12394;42.692;23.314;2024-01-30T03:18:15;96949.69;;;0.80
24278;BMP280;12394;42.692;23.314;2024-01-30T03:20:41;96954.84;;;0.80
24278;BMP280;12394;42.692;23.314;2024-01-30T03:23:06;96934.66;;;0.64
24278;BMP280;12394;42.692;23.314;2024-01-30T03:25:32;96949.34;;;0.63
24278;BMP280;12394;42.692;23.314;2024-01-30T03:27:57;96949.34;;;0.63
24278;BMP280;12394;42.692;23.314;2024-01-30T03:30:23;96952.75;;;0.59
24278;BMP280;12394;42.692;23.314;2024-01-30T03:32:48;96951.63;;;0.65
24278;BMP280;12394;42.692;23.314;2024-01-30T03:35:14;96929.84;;;0.57
24278;BMP280;12394;42.692;23.314;2024-01-30T03:37:40;96939.28;;;0.67
24278;BMP280;12394;42.692;23.314;2024-01-30T03:40:06;96946.66;;;0.73
24278;BMP280;12394;42.692;23.314;2024-01-30T03:42:31;96925.16;;;0.59
24278;BMP280;12394;42.692;23.314;2024-01-30T03:44:57;96938.16;;;0.73
24278;BMP280;12394;42.692;23.314;2024-01-30T03:47:22;96931.16;;;0.78
24278;BMP280;12394;42.692;23.314;2024-01-30T03:49:48;96940.72;;;0.73
24278;BMP280;12394;42.692;23.314;2024-01-30T03:52:13;96931.25;;;0.68
24278;BMP280;12394;42.692;23.314;2024-01-30T03:54:39;96938.50;;;0.66
24278;BMP280;12394;42.692;23.314;2024-01-30T03:57:05;96938.28;;;0.63
24278;BMP280;12394;42.692;23.314;2024-01-30T03:59:30;96920.31;;;0.58
24278;BMP280;12394;42.692;23.314;2024-01-30T04:01:56;96920.81;;;0.55
24278;BMP280;12394;42.692;23.314;2024-01-30T04:04:21;96920.31;;;0.58
24278;BMP280;12394;42.692;23.314;2024-01-30T04:06:48;96935.41;;;0.64
24278;BMP280;12394;42.692;23.314;2024-01-30T04:09:14;96931.13;;;0.55
24278;BMP280;12394;42.692;23.314;2024-01-30T04:11:40;96924.47;;;0.54
24278;BMP280;12394;42.692;23.314;2024-01-30T04:14:05;96924.22;;;0.50
24278;BMP280;12394;42.692;23.314;2024-01-30T04:16:31;96917.91;;;0.37
24278;BMP280;12394;42.692;23.314;2024-01-30T04:18:57;96931.78;;;0.41
24278;BMP280;12394;42.692;23.314;2024-01-30T04:21:23;96933.53;;;0.46
24278;BMP280;12394;42.692;23.314;2024-01-30T04:23:50;96923.28;;;0.41
24278;BMP280;12394;42.692;23.314;2024-01-30T04:26:16;96929.88;;;0.52
24278;BMP280;12394;42.692;23.314;2024-01-30T04:28:42;96933.31;;;0.42
24278;BMP280;12394;42.692;23.314;2024-01-30T04:31:07;96944.81;;;0.50
24278;BMP280;12394;42.692;23.314;2024-01-30T04:33:33;96934.03;;;0.48
24278;BMP280;12394;42.692;23.314;2024-01-30T04:35:59;96938.97;;;0.44
24278;BMP280;12394;42.692;23.314;2024-01-30T04:38:24;96945.94;;;0.44
24278;BMP280;12394;42.692;23.314;2024-01-30T04:40:50;96946.75;;;0.39
24278;BMP280;12394;42.692;23.314;2024-01-30T04:43:15;96942.88;;;0.37
24278;BMP280;12394;42.692;23.314;2024-01-30T04:45:41;96941.53;;;0.44
24278;BMP280;12394;42.692;23.314;2024-01-30T04:48:07;96931.13;;;0.31
24278;BMP280;12394;42.692;23.314;2024-01-30T04:50:33;96948.00;;;0.42
24278;BMP280;12394;42.692;23.314;2024-01-30T04:52:58;96955.22;;;0.40
24278;BMP280;12394;42.692;23.314;2024-01-30T04:55:24;96959.22;;;0.51
24278;BMP280;12394;42.692;23.314;2024-01-30T04:57:49;96966.97;;;0.51
24278;BMP280;12394;42.692;23.314;2024-01-30T05:00:15;96966.19;;;0.51
24278;BMP280;12394;42.692;23.314;2024-01-30T05:02:40;96968.31;;;0.43
24278;BMP280;12394;42.692;23.314;2024-01-30T05:05:06;96963.97;;;0.39
24278;BMP280;12394;42.692;23.314;2024-01-30T05:07:32;96968.63;;;0.37
24278;BMP280;12394;42.692;23.314;2024-01-30T05:09:57;96969.75;;;0.26
24278;BMP280;12394;42.692;23.314;2024-01-30T05:12:23;96969.75;;;0.26
24278;BMP280;12394;42.692;23.314;2024-01-30T05:14:48;96970.53;;;0.26
24278;BMP280;12394;42.692;23.314;2024-01-30T05:17:14;96963.34;;;0.23
24278;BMP280;12394;42.692;23.314;2024-01-30T05:19:39;96931.31;;;0.06
24278;BMP280;12394;42.692;23.314;2024-01-30T05:22:04;96968.22;;;0.25
24278;BMP280;12394;42.692;23.314;2024-01-30T05:24:30;96973.38;;;0.25
24278;BMP280;12394;42.692;23.314;2024-01-30T05:26:55;96946.78;;;0.00
24278;BMP280;12394;42.692;23.314;2024-01-30T05:29:21;96971.91;;;0.14
24278;BMP280;12394;42.692;23.314;2024-01-30T05:31:47;96974.72;;;0.17
24278;BMP280;12394;42.692;23.314;2024-01-30T05:34:12;96958.84;;;0.05
24278;BMP280;12394;42.692;23.314;2024-01-30T05:36:38;96971.44;;;0.07
24278;BMP280;12394;42.692;23.314;2024-01-30T05:39:03;96946.06;;;-0.05
24278;BMP280;12394;42.692;23.314;2024-01-30T05:41:29;96966.03;;;0.08
24278;BMP280;12394;42.692;23.314;2024-01-30T05:43:55;96980.50;;;-0.01
24278;BMP280;12394;42.692;23.314;2024-01-30T05:46:20;96952.63;;;-0.23
24278;BMP280;12394;42.692;23.314;2024-01-30T05:48:46;96973.38;;;-0.09
24278;BMP280;12394;42.692;23.314;2024-01-30T05:51:11;96954.13;;;-0.22
24278;BMP280;12394;42.692;23.314;2024-01-30T05:53:36;96966.38;;;-0.09
24278;BMP280;12394;42.692;23.314;2024-01-30T05:56:02;96976.97;;;-0.10
24278;BMP280;12394;42.692;23.314;2024-01-30T05:58:28;96974.66;;;-0.12
24278;BMP280;12394;42.692;23.314;2024-01-30T06:00:54;96967.44;;;-0.10
24278;BMP280;12394;42.692;23.314;2024-01-30T06:03:19;96968.75;;;-0.17
24278;BMP280;12394;42.692;23.314;2024-01-30T06:05:45;96964.69;;;-0.18
24278;BMP280;12394;42.692;23.314;2024-01-30T06:08:10;96977.53;;;-0.18
24278;BMP280;12394;42.692;23.314;2024-01-30T06:10:36;96978.28;;;-0.18
24278;BMP280;12394;42.692;23.314;2024-01-30T06:13:01;96970.38;;;-0.31
24278;BMP280;12394;42.692;23.314;2024-01-30T06:15:27;96977.53;;;-0.18
24278;BMP280;12394;42.692;23.314;2024-01-30T06:17:55;96980.38;;;-0.20
24278;BMP280;12394;42.692;23.314;2024-01-30T06:20:20;96990.44;;;0.11
24278;BMP280;12394;42.692;23.314;2024-01-30T06:22:46;96961.34;;;0.49
24278;BMP280;12394;42.692;23.314;2024-01-30T06:25:11;96989.72;;;0.97
24278;BMP280;12394;42.692;23.314;2024-01-30T06:27:37;96978.78;;;1.28
24278;BMP280;12394;42.692;23.314;2024-01-30T06:30:04;96977.88;;;1.81
24278;BMP280;12394;42.692;23.314;2024-01-30T06:32:30;96986.81;;;2.39
24278;BMP280;12394;42.692;23.314;2024-01-30T06:35:00;96989.13;;;3.00
24278;BMP280;12394;42.692;23.314;2024-01-30T06:37:25;96985.94;;;3.72
24278;BMP280;12394;42.692;23.314;2024-01-30T06:39:51;96987.50;;;4.39
24278;BMP280;12394;42.692;23.314;2024-01-30T06:42:18;96987.25;;;4.72
24278;BMP280;12394;42.692;23.314;2024-01-30T06:44:43;96990.69;;;5.37
24278;BMP280;12394;42.692;23.314;2024-01-30T06:47:09;96947.47;;;5.24
24278;BMP280;12394;42.692;23.314;2024-01-30T06:49:35;96995.09;;;6.02
24278;BMP280;12394;42.692;23.314;2024-01-30T06:52:05;96985.97;;;6.77
24278;BMP280;12394;42.692;23.314;2024-01-30T06:54:30;96990.56;;;7.18
24278;BMP280;12394;42.692;23.314;2024-01-30T06:56:56;96984.63;;;7.09
24278;BMP280;12394;42.692;23.314;2024-01-30T06:59:22;96991.78;;;7.79
24278;BMP280;12394;42.692;23.314;2024-01-30T07:01:47;96996.06;;;8.58
24278;BMP280;12394;42.692;23.314;2024-01-30T07:04:13;96999.47;;;8.71
24278;BMP280;12394;42.692;23.314;2024-01-30T07:06:38;96977.44;;;9.41
24278;BMP280;12394;42.692;23.314;2024-01-30T07:09:04;96983.09;;;9.67
24278;BMP280;12394;42.692;23.314;2024-01-30T07:11:30;96992.03;;;10.06
24278;BMP280;12394;42.692;23.314;2024-01-30T07:13:56;96983.38;;;10.58
24278;BMP280;12394;42.692;23.314;2024-01-30T07:16:21;96988.59;;;11.36
24278;BMP280;12394;42.692;23.314;2024-01-30T07:18:48;96986.50;;;11.92
24278;BMP280;12394;42.692;23.314;2024-01-30T07:21:14;96998.97;;;11.80
24278;BMP280;12394;42.692;23.314;2024-01-30T07:23:40;96990.00;;;11.81
24278;BMP280;12394;42.692;23.314;2024-01-30T07:26:09;96983.69;;;12.20
24278;BMP280;12394;42.692;23.314;2024-01-30T07:28:35;96997.28;;;12.26
24278;BMP280;12394;42.692;23.314;2024-01-30T07:31:01;96995.91;;;12.74
24278;BMP280;12394;42.692;23.314;2024-01-30T07:33:27;97007.13;;;12.71
24278;BMP280;12394;42.692;23.314;2024-01-30T07:35:53;96976.94;;;13.07
24278;BMP280;12394;42.692;23.314;2024-01-30T07:38:19;96977.88;;;14.60
24278;BMP280;12394;42.692;23.314;2024-01-30T07:40:45;96985.44;;;15.05
24278;BMP280;12394;42.692;23.314;2024-01-30T07:43:10;96982.63;;;14.47
24278;BMP280;12394;42.692;23.314;2024-01-30T07:45:36;96990.06;;;15.67
24278;BMP280;12394;42.692;23.314;2024-01-30T07:48:03;96985.91;;;15.66
24278;BMP280;12394;42.692;23.314;2024-01-30T07:50:29;96987.81;;;16.66
24278;BMP280;12394;42.692;23.314;2024-01-30T07:52:59;96972.16;;;15.46
24278;BMP280;12394;42.692;23.314;2024-01-30T07:55:25;96967.38;;;15.07
24278;BMP280;12394;42.692;23.314;2024-01-30T07:57:54;96980.66;;;16.66
24278;BMP280;12394;42.692;23.314;2024-01-30T08:00:21;96978.22;;;16.19
24278;BMP280;12394;42.692;23.314;2024-01-30T08:02:47;96979.44;;;16.50
24278;BMP280;12394;42.692;23.314;2024-01-30T08:05:13;96980.97;;;16.51
24278;BMP280;12394;42.692;23.314;2024-01-30T08:07:41;96987.44;;;17.81
24278;BMP280;12394;42.692;23.314;2024-01-30T08:10:08;96987.47;;;17.45
24278;BMP280;12394;42.692;23.314;2024-01-30T08:12:33;96979.53;;;17.45
24278;BMP280;12394;42.692;23.314;2024-01-30T08:14:59;96974.75;;;18.31
24278;BMP280;12394;42.692;23.314;2024-01-30T08:17:24;96975.38;;;17.51
24278;BMP280;12394;42.692;23.314;2024-01-30T08:19:50;96980.59;;;17.90
24278;BMP280;12394;42.692;23.314;2024-01-30T08:22:15;96977.97;;;17.87
24278;BMP280;12394;42.692;23.314;2024-01-30T08:24:41;96986.81;;;19.12
24278;BMP280;12394;42.692;23.314;2024-01-30T08:27:07;96984.31;;;18.87
24278;BMP280;12394;42.692;23.314;2024-01-30T08:29:35;96992.56;;;19.51
24278;BMP280;12394;42.692;23.314;2024-01-30T08:32:01;96978.53;;;18.33
24278;BMP280;12394;42.692;23.314;2024-01-30T08:34:26;96997.44;;;18.35
24278;BMP280;12394;42.692;23.314;2024-01-30T08:36:52;96987.91;;;18.52
24278;BMP280;12394;42.692;23.314;2024-01-30T08:39:18;96977.25;;;18.70
24278;BMP280;12394;42.692;23.314;2024-01-30T08:41:43;96988.09;;;18.16
24278;BMP280;12394;42.692;23.314;2024-01-30T08:44:09;96976.88;;;18.64
24278;BMP280;12394;42.692;23.314;2024-01-30T08:46:36;96987.47;;;20.01
24278;BMP280;12394;42.692;23.314;2024-01-30T08:49:02;96999.56;;;19.72
24278;BMP280;12394;42.692;23.314;2024-01-30T08:51:28;96997.56;;;19.83
24278;BMP280;12394;42.692;23.314;2024-01-30T08:53:53;96998.25;;;19.01
24278;BMP280;12394;42.692;23.314;2024-01-30T08:56:19;96998.06;;;17.27
24278;BMP280;12394;42.692;23.314;2024-01-30T08:58:44;96995.09;;;15.96
24278;BMP280;12394;42.692;23.314;2024-01-30T09:01:10;96998.09;;;13.89
24278;BMP280;12394;42.692;23.314;2024-01-30T09:03:35;97002.91;;;12.66
24278;BMP280;12394;42.692;23.314;2024-01-30T09:06:08;96995.66;;;12.60
24278;BMP280;12394;42.692;23.314;2024-01-30T09:08:33;97002.59;;;12.48
24278;BMP280;12394;42.692;23.314;2024-01-30T09:10:59;97002.69;;;14.59
24278;BMP280;12394;42.692;23.314;2024-01-30T09:13:24;96993.84;;;14.78
24278;BMP280;12394;42.692;23.314;2024-01-30T09:15:50;96996.78;;;15.57
24278;BMP280;12394;42.692;23.314;2024-01-30T09:18:15;97003.81;;;18.52
24278;BMP280;12394;42.692;23.314;2024-01-30T09:20:41;96979.38;;;18.16
24278;BMP280;12394;42.692;23.314;2024-01-30T09:23:06;97002.50;;;18.88
24278;BMP280;12394;42.692;23.314;2024-01-30T09:25:32;96985.84;;;19.32
24278;BMP280;12394;42.692;23.314;2024-01-30T09:27:59;96985.88;;;18.81
24278;BMP280;12394;42.692;23.314;2024-01-30T09:30:24;96934.72;;;20.03
24278;BMP280;12394;42.692;23.314;2024-01-30T09:32:50;96976.81;;;19.26
24278;BMP280;12394;42.692;23.314;2024-01-30T09:35:15;96984.38;;;17.96
24278;BMP280;12394;42.692;23.314;2024-01-30T09:37:41;96968.53;;;15.13
24278;BMP280;12394;42.692;23.314;2024-01-30T09:40:07;96970.19;;;13.06
24278;BMP280;12394;42.692;23.314;2024-01-30T09:42:36;96974.13;;;11.93
24278;BMP280;12394;42.692;23.314;2024-01-30T09:45:03;96981.59;;;10.62
24278;BMP280;12394;42.692;23.314;2024-01-30T09:47:40;96955.44;;;8.81
24278;BMP280;12394;42.692;23.314;2024-01-30T09:50:09;96967.22;;;8.42
24278;BMP280;12394;42.692;23.314;2024-01-30T09:52:35;96952.34;;;7.60
24278;BMP280;12394;42.692;23.314;2024-01-30T09:55:00;96966.53;;;8.13
24278;BMP280;12394;42.692;23.314;2024-01-30T09:57:27;96970.97;;;8.33
24278;BMP280;12394;42.692;23.314;2024-01-30T09:59:52;96977.41;;;8.35
24278;BMP280;12394;42.692;23.314;2024-01-30T10:02:20;96970.66;;;9.64
24278;BMP280;12394;42.692;23.314;2024-01-30T10:04:49;96964.78;;;10.63
24278;BMP280;12394;42.692;23.314;2024-01-30T10:07:15;96953.63;;;12.37
24278;BMP280;12394;42.692;23.314;2024-01-30T10:09:40;96955.81;;;13.22
24278;BMP280;12394;42.692;23.314;2024-01-30T10:12:06;96956.09;;;11.06
24278;BMP280;12394;42.692;23.314;2024-01-30T10:14:33;96952.19;;;9.97
24278;BMP280;12394;42.692;23.314;2024-01-30T10:16:58;96954.75;;;9.69
24278;BMP280;12394;42.692;23.314;2024-01-30T10:19:24;96954.84;;;10.84
24278;BMP280;12394;42.692;23.314;2024-01-30T10:21:50;96956.81;;;13.14
24278;BMP280;12394;42.692;23.314;2024-01-30T10:24:15;96949.28;;;14.29
24278;BMP280;12394;42.692;23.314;2024-01-30T10:26:43;96939.69;;;13.50
24278;BMP280;12394;42.692;23.314;2024-01-30T10:29:09;96958.84;;;12.56
24278;BMP280;12394;42.692;23.314;2024-01-30T10:31:35;96947.94;;;13.49
24278;BMP280;12394;42.692;23.314;2024-01-30T10:34:00;96955.13;;;15.33
24278;BMP280;12394;42.692;23.314;2024-01-30T10:36:29;96946.66;;;15.61
24278;BMP280;12394;42.692;23.314;2024-01-30T10:38:59;96956.50;;;16.75
24278;BMP280;12394;42.692;23.314;2024-01-30T10:41:30;96950.09;;;16.94
24278;BMP280;12394;42.692;23.314;2024-01-30T10:44:10;96958.66;;;16.34
24278;BMP280;12394;42.692;23.314;2024-01-30T10:46:38;96964.06;;;17.12
24278;BMP280;12394;42.692;23.314;2024-01-30T10:49:05;96948.91;;;17.51
24278;BMP280;12394;42.692;23.314;2024-01-30T10:51:32;96942.38;;;17.91
24278;BMP280;12394;42.692;23.314;2024-01-30T10:53:57;96944.34;;;16.53
24278;BMP280;12394;42.692;23.314;2024-01-30T10:56:23;96936.81;;;17.50
24278;BMP280;12394;42.692;23.314;2024-01-30T10:58:53;96934.59;;;17.06
24278;BMP280;12394;42.692;23.314;2024-01-30T11:01:20;96927.81;;;16.84
24278;BMP280;12394;42.692;23.314;2024-01-30T11:03:52;96919.06;;;16.52
24278;BMP280;12394;42.692;23.314;2024-01-30T11:06:18;96907.31;;;16.28
24278;BMP280;12394;42.692;23.314;2024-01-30T11:08:45;96919.50;;;16.89
24278;BMP280;12394;42.692;23.314;2024-01-30T11:11:11;96921.38;;;16.96
24278;BMP280;12394;42.692;23.314;2024-01-30T11:13:37;96922.41;;;17.55
24278;BMP280;12394;42.692;23.314;2024-01-30T11:16:03;96919.47;;;16.82
24278;BMP280;12394;42.692;23.314;2024-01-30T11:18:31;96906.53;;;16.17
24278;BMP280;12394;42.692;23.314;2024-01-30T11:20:57;96911.53;;;14.95
24278;BMP280;12394;42.692;23.314;2024-01-30T11:23:23;96910.03;;;14.50
24278;BMP280;12394;42.692;23.314;2024-01-30T11:25:52;96913.19;;;14.66
24278;BMP280;12394;42.692;23.314;2024-01-30T11:28:18;96899.22;;;14.62
24278;BMP280;12394;42.692;23.314;2024-01-30T11:30:46;96892.13;;;13.32
24278;BMP280;12394;42.692;23.314;2024-01-30T11:33:14;96901.63;;;12.23
24278;BMP280;12394;42.692;23.314;2024-01-30T11:35:41;96900.31;;;11.21
24278;BMP280;12394;42.692;23.314;2024-01-30T11:38:09;96911.34;;;11.81
24278;BMP280;12394;42.692;23.314;2024-01-30T11:40:36;96907.88;;;10.60
24278;BMP280;12394;42.692;23.314;2024-01-30T11:43:04;96885.84;;;9.10
24278;BMP280;12394;42.692;23.314;2024-01-30T11:45:30;96905.84;;;8.81
24278;BMP280;12394;42.692;23.314;2024-01-30T11:47:56;96904.78;;;8.04
24278;BMP280;12394;42.692;23.314;2024-01-30T11:50:23;96891.63;;;7.47
24278;BMP280;12394;42.692;23.314;2024-01-30T11:52:50;96906.94;;;7.49
24278;BMP280;12394;42.692;23.314;2024-01-30T11:55:15;96886.59;;;6.63
24278;BMP280;12394;42.692;23.314;2024-01-30T11:57:41;96897.75;;;6.55
24278;BMP280;12394;42.692;23.314;2024-01-30T12:00:14;96890.66;;;6.35
24278;BMP280;12394;42.692;23.314;2024-01-30T12:02:40;96880.13;;;6.22
24278;BMP280;12394;42.692;23.314;2024-01-30T12:05:07;96861.84;;;5.76
24278;BMP280;12394;42.692;23.314;2024-01-30T12:07:33;96874.50;;;5.69
24278;BMP280;12394;42.692;23.314;2024-01-30T12:09:58;96856.66;;;5.50
24278;BMP280;12394;42.692;23.314;2024-01-30T12:12:25;96859.09;;;5.47
24278;BMP280;12394;42.692;23.314;2024-01-30T12:14:52;96863.66;;;5.32
24278;BMP280;12394;42.692;23.314;2024-01-30T12:17:31;96860.00;;;5.33
24278;BMP280;12394;42.692;23.314;2024-01-30T12:20:04;96859.84;;;5.64
24278;BMP280;12394;42.692;23.314;2024-01-30T12:22:41;96831.88;;;5.78
24278;BMP280;12394;42.692;23.314;2024-01-30T12:25:08;96837.22;;;5.82
24278;BMP280;12394;42.692;23.314;2024-01-30T12:27:35;96861.50;;;5.86
24278;BMP280;12394;42.692;23.314;2024-01-30T12:30:00;96852.84;;;5.99
24278;BMP280;12394;42.692;23.314;2024-01-30T12:32:26;96848.84;;;5.85
24278;BMP280;12394;42.692;23.314;2024-01-30T12:34:55;96845.50;;;5.75
24278;BMP280;12394;42.692;23.314;2024-01-30T12:37:21;96847.19;;;5.71
24278;BMP280;12394;42.692;23.314;2024-01-30T12:39:48;96846.56;;;5.66
24278;BMP280;12394;42.692;23.314;2024-01-30T12:42:14;96835.59;;;5.17
24278;BMP280;12394;42.692;23.314;2024-01-30T12:44:41;96840.84;;;4.86
24278;BMP280;12394;42.692;23.314;2024-01-30T12:47:08;96845.50;;;5.15
24278;BMP280;12394;42.692;23.314;2024-01-30T12:49:35;96840.78;;;5.17
24278;BMP280;12394;42.692;23.314;2024-01-30T12:52:00;96838.63;;;5.36
24278;BMP280;12394;42.692;23.314;2024-01-30T12:54:26;96828.09;;;5.33
24278;BMP280;12394;42.692;23.314;2024-01-30T12:56:51;96808.53;;;4.84
24278;BMP280;12394;42.692;23.314;2024-01-30T12:59:17;96833.97;;;4.82
24278;BMP280;12394;42.692;23.314;2024-01-30T13:01:42;96825.22;;;5.17
24278;BMP280;12394;42.692;23.314;2024-01-30T13:04:08;96827.03;;;5.34
24278;BMP280;12394;42.692;23.314;2024-01-30T13:06:34;96821.84;;;5.25
24278;BMP280;12394;42.692;23.314;2024-01-30T13:08:59;96829.13;;;4.89
24278;BMP280;12394;42.692;23.314;2024-01-30T13:11:24;96819.06;;;4.96
24278;BMP280;12394;42.692;23.314;2024-01-30T13:13:51;96811.13;;;5.01
24278;BMP280;12394;42.692;23.314;2024-01-30T13:16:16;96812.22;;;5.09
24278;BMP280;12394;42.692;23.314;2024-01-30T13:18:43;96814.19;;;5.03
24278;BMP280;12394;42.692;23.314;2024-01-30T13:21:09;96814.97;;;4.95
24278;BMP280;12394;42.692;23.314;2024-01-30T13:23:34;96801.53;;;5.02
24278;BMP280;12394;42.692;23.314;2024-01-30T13:26:00;96810.22;;;5.06
24278;BMP280;12394;42.692;23.314;2024-01-30T13:28:26;96810.53;;;5.04
24278;BMP280;12394;42.692;23.314;2024-01-30T13:30:51;96807.00;;;5.00
24278;BMP280;12394;42.692;23.314;2024-01-30T13:33:17;96810.34;;;4.75
24278;BMP280;12394;42.692;23.314;2024-01-30T13:35:42;96800.84;;;4.62
24278;BMP280;12394;42.692;23.314;2024-01-30T13:38:11;96809.13;;;4.72
24278;BMP280;12394;42.692;23.314;2024-01-30T13:40:36;96810.28;;;4.49
24278;BMP280;12394;42.692;23.314;2024-01-30T13:43:02;96818.28;;;4.30
24278;BMP280;12394;42.692;23.314;2024-01-30T13:45:27;96821.19;;;4.37
24278;BMP280;12394;42.692;23.314;2024-01-30T13:47:53;96820.56;;;4.32
24278;BMP280;12394;42.692;23.314;2024-01-30T13:50:19;96815.06;;;4.25
24278;BMP280;12394;42.692;23.314;2024-01-30T13:52:44;96798.38;;;4.09
24278;BMP280;12394;42.692;23.314;2024-01-30T13:55:10;96815.91;;;4.12
24278;BMP280;12394;42.692;23.314;2024-01-30T13:57:37;96810.00;;;3.89